Time;durP1;ratioP1;P1;durP2;ratioP2;P2;SDS_P1;SDS_P2;PMS_P1;PMS_P2;Temp;Humidity;BMP_temperature;BMP_pressure;BME280_temperature;BME280_humidity;BME280_pressure;Samples;Min_cycle;Max_cycle;Signal;HPM_P1;HPM_P2
2021/08/04 00:02:22;;;;;;;1.40;1.00;;;;;;;22.19;51.36;101477.56;5078880;28;20406;-75
2021/08/04 00:04:47;;;;;;;0.95;0.75;;;;;;;22.21;51.41;101478.38;5079149;28;20023;-75
2021/08/04 00:07:13;;;;;;;1.08;0.80;;;;;;;22.18;51.33;101475.81;5113914;28;20038;-75
2021/08/04 00:09:38;;;;;;;1.38;0.93;;;;;;;22.20;51.42;101474.03;5095809;28;20027;-75
2021/08/04 00:12:04;;;;;;;1.40;0.80;;;;;;;22.21;51.41;101474.00;5078872;28;20566;-75
2021/08/04 00:14:29;;;;;;;1.83;1.25;;;;;;;22.21;51.23;101473.13;5095578;28;20467;-75
2021/08/04 00:16:55;;;;;;;1.00;0.85;;;;;;;22.22;51.51;101477.50;5095639;28;20035;-75
2021/08/04 00:19:20;;;;;;;0.85;0.70;;;;;;;22.20;51.38;101481.94;5078893;28;20027;-75
2021/08/04 00:21:46;;;;;;;1.38;1.02;;;;;;;22.21;51.42;101479.25;5095678;28;20061;-75
2021/08/04 00:24:11;;;;;;;1.40;1.13;;;;;;;22.21;51.31;101487.16;5095669;28;20096;-75
2021/08/04 00:26:37;;;;;;;1.10;0.80;;;;;;;22.20;51.21;101479.31;5113836;28;20043;-75
2021/08/04 00:29:02;;;;;;;1.50;1.02;;;;;;;22.16;51.41;101475.81;5095724;28;20530;-75
2021/08/04 00:31:27;;;;;;;1.33;0.73;;;;;;;22.18;51.32;101476.69;5095635;28;20035;-75
2021/08/04 00:33:53;;;;;;;2.15;0.88;;;;;;;22.20;51.41;101485.41;5095628;28;20145;-75
2021/08/04 00:36:18;;;;;;;1.25;0.90;;;;;;;22.20;51.39;101485.41;5078487;28;20550;-75
2021/08/04 00:38:43;;;;;;;1.10;0.88;;;;;;;22.17;51.37;101479.31;5113738;28;20509;-75
2021/08/04 00:41:09;;;;;;;1.08;0.90;;;;;;;22.19;51.41;101483.69;5095564;28;20032;-75
2021/08/04 00:43:34;;;;;;;1.83;1.20;;;;;;;22.17;51.58;101480.19;5078644;28;20161;-75
2021/08/04 00:45:59;;;;;;;1.45;0.90;;;;;;;22.15;51.54;101468.78;5113719;28;20401;-75
2021/08/04 00:48:25;;;;;;;0.90;0.70;;;;;;;22.17;51.42;101474.94;5095471;28;20386;-75
2021/08/04 00:50:50;;;;;;;1.38;1.00;;;;;;;22.20;51.33;101484.56;5095579;28;20028;-75
2021/08/04 00:53:24;;;;;;;0.85;0.65;;;;;;;22.15;51.40;101479.34;5095582;28;20028;-75
2021/08/04 00:55:51;;;;;;;1.42;0.80;;;;;;;22.19;51.51;101486.31;5078608;28;20033;-75
2021/08/04 00:58:18;;;;;;;0.95;0.70;;;;;;;22.17;51.62;101482.84;5113475;28;20031;-75
2021/08/04 01:00:52;;;;;;;1.40;0.82;;;;;;;22.18;51.70;101483.72;5115641;28;20059;-75
2021/08/04 01:03:20;;;;;;;0.80;0.70;;;;;;;22.17;51.57;101487.22;5098914;28;20084;-75
2021/08/04 01:05:59;;;;;;;1.13;0.93;;;;;;;22.17;51.49;101493.38;5099456;28;20466;-75
2021/08/04 01:08:30;;;;;;;1.35;1.02;;;;;;;22.14;51.29;101488.13;5098942;28;20034;-75
2021/08/04 01:10:57;;;;;;;1.17;0.90;;;;;;;22.14;51.59;101484.63;5117317;28;20480;-75
2021/08/04 01:13:38;;;;;;;1.25;0.90;;;;;;;22.13;51.59;101489.00;5099339;28;20373;-75
2021/08/04 01:16:09;;;;;;;1.70;1.10;;;;;;;22.17;51.51;101490.72;5116915;28;20155;-75
2021/08/04 01:18:44;;;;;;;1.25;0.90;;;;;;;22.12;51.60;101487.25;5116975;28;20020;-75
2021/08/04 01:21:10;;;;;;;1.17;0.95;;;;;;;22.16;51.53;101490.75;5117103;28;20024;-75
2021/08/04 01:23:49;;;;;;;1.05;0.70;;;;;;;22.14;51.54;101481.97;5116845;28;20106;-75
2021/08/04 01:26:51;;;;;;;1.27;0.88;;;;;;;22.15;51.57;101489.88;5098795;28;20501;-75
2021/08/04 01:29:19;;;;;;;1.20;0.77;;;;;;;22.15;51.48;101481.97;4998047;28;20416;-75
2021/08/04 01:31:48;;;;;;;1.08;0.88;;;;;;;22.13;51.58;101477.59;5084295;28;20054;-75
2021/08/04 01:34:17;;;;;;;1.80;1.00;;;;;;;22.13;51.46;101483.75;5099788;28;20019;-75
2021/08/04 01:36:44;;;;;;;1.17;0.90;;;;;;;22.14;51.51;101485.50;5099600;28;20024;-75
2021/08/04 01:39:10;;;;;;;0.88;0.77;;;;;;;22.13;51.47;101483.75;5083346;28;20027;-75
2021/08/04 01:41:37;;;;;;;1.40;0.93;;;;;;;22.06;51.75;101469.78;5083567;28;20035;-75
2021/08/04 01:44:07;;;;;;;1.15;0.82;;;;;;;22.15;51.52;101478.47;5099994;28;20039;-75
2021/08/04 01:46:33;;;;;;;3.25;1.63;;;;;;;22.13;51.65;101478.47;5098922;28;20019;-75
2021/08/04 01:49:01;;;;;;;1.77;0.98;;;;;;;22.12;51.61;101476.72;5081644;28;20080;-75
2021/08/04 01:51:27;;;;;;;0.80;0.80;;;;;;;22.12;51.65;101473.22;5081548;28;20054;-75
2021/08/04 01:53:53;;;;;;;1.10;0.70;;;;;;;22.14;51.58;101477.59;5081513;28;20466;-75
2021/08/04 01:56:19;;;;;;;1.05;0.80;;;;;;;22.14;51.62;101484.63;5098305;28;20031;-75
2021/08/04 01:58:45;;;;;;;1.05;0.80;;;;;;;22.11;51.72;101469.72;5081853;28;20043;-75
2021/08/04 02:01:11;;;;;;;1.27;0.93;;;;;;;22.13;51.66;101475.84;5094913;28;20498;-75
2021/08/04 02:03:37;;;;;;;0.90;0.65;;;;;;;22.09;51.58;101466.22;5106572;28;20050;-74
2021/08/04 02:06:08;;;;;;;0.98;0.80;;;;;;;22.08;51.43;101457.44;5105119;28;20036;-75
2021/08/04 02:08:45;;;;;;;1.00;0.73;;;;;;;22.15;51.63;101483.72;5113455;28;20035;-74
2021/08/04 02:11:10;;;;;;;1.30;1.00;;;;;;;22.14;51.58;101480.22;5100741;28;20024;-74
2021/08/04 02:14:24;;;;;;;0.93;0.73;;;;;;;22.12;51.60;101471.47;5096478;28;20073;-75
2021/08/04 02:17:34;;;;;;;1.27;0.88;;;;;;;22.13;51.65;101475.84;5033996;28;20037;-74
2021/08/04 02:20:11;;;;;;;1.42;0.80;;;;;;;22.14;51.53;101474.06;4994965;28;20022;-74
2021/08/04 02:22:48;;;;;;;1.77;0.82;;;;;;;22.15;51.67;101473.19;5083269;28;20493;-75
2021/08/04 02:25:38;;;;;;;0.60;0.50;;;;;;;22.14;51.65;101469.69;5111857;28;20078;-73
2021/08/04 02:28:07;;;;;;;1.27;0.68;;;;;;;22.09;51.71;101463.56;5083936;28;20397;-73
2021/08/04 02:30:33;;;;;;;1.20;0.90;;;;;;;22.13;51.67;101467.06;5077163;28;20497;-73
2021/08/04 02:33:00;;;;;;;0.95;0.70;;;;;;;22.12;51.71;101460.91;5095697;28;20115;-72
2021/08/04 02:35:26;;;;;;;1.42;0.60;;;;;;;22.08;51.52;101453.94;5095411;28;20100;-73
2021/08/04 02:37:52;;;;;;;1.40;0.90;;;;;;;22.11;51.78;101464.44;5077088;28;20453;-72
2021/08/04 02:40:17;;;;;;;1.30;0.93;;;;;;;22.07;51.55;101455.69;5093920;28;20119;-73
2021/08/04 02:42:45;;;;;;;1.13;0.80;;;;;;;22.09;51.58;101453.91;5094962;28;20028;-73
2021/08/04 02:45:11;;;;;;;1.27;0.90;;;;;;;22.06;51.66;101451.34;5094922;28;20032;-73
2021/08/04 02:47:37;;;;;;;0.93;0.65;;;;;;;22.12;51.62;101454.78;5094769;28;20028;-73
2021/08/04 02:50:05;;;;;;;1.17;0.90;;;;;;;22.06;51.72;101455.72;5093590;28;20474;-73
2021/08/04 02:52:33;;;;;;;0.88;0.80;;;;;;;22.07;51.77;101444.31;5093494;28;20024;-72
2021/08/04 02:54:58;;;;;;;1.00;0.80;;;;;;;22.10;51.68;101453.03;5094916;28;20090;-73
2021/08/04 02:57:24;;;;;;;0.93;0.77;;;;;;;22.13;51.63;101461.78;5093496;28;20032;-73
2021/08/04 02:59:49;;;;;;;1.10;0.80;;;;;;;22.07;51.72;101447.78;5093525;28;20061;-73
2021/08/04 03:02:15;;;;;;;0.95;0.63;;;;;;;22.09;51.69;101453.91;5076237;28;20410;-73
2021/08/04 03:04:40;;;;;;;0.90;0.70;;;;;;;22.04;51.64;101444.34;5094619;28;20379;-72
2021/08/04 03:07:06;;;;;;;0.68;0.60;;;;;;;22.06;51.71;101448.69;5093409;28;20081;-73
2021/08/04 03:09:31;;;;;;;1.40;1.00;;;;;;;22.04;51.83;101441.69;5093352;28;20028;-72
2021/08/04 03:11:57;;;;;;;0.70;0.50;;;;;;;22.09;51.73;101455.69;5094710;28;20035;-73
2021/08/04 03:14:22;;;;;;;1.23;0.90;;;;;;;22.05;51.72;101443.44;5076189;28;20042;-73
2021/08/04 03:16:47;;;;;;;1.02;0.75;;;;;;;22.08;51.77;101452.16;5093229;28;20031;-73
2021/08/04 03:19:14;;;;;;;0.70;0.60;;;;;;;22.05;51.59;101451.34;5094408;28;20379;-73
2021/08/04 03:21:39;;;;;;;1.10;0.93;;;;;;;22.07;51.58;101447.78;5093029;28;20035;-72
2021/08/04 03:24:05;;;;;;;1.40;0.82;;;;;;;22.01;51.73;101431.19;5093889;28;20077;-72
2021/08/04 03:26:31;;;;;;;1.23;0.95;;;;;;;22.05;51.72;101449.59;5093068;28;20031;-72
2021/08/04 03:28:56;;;;;;;0.52;0.52;;;;;;;22.05;51.84;101444.31;5092971;28;20024;-73
2021/08/04 03:31:22;;;;;;;1.33;0.63;;;;;;;22.05;51.76;101446.09;5093216;28;20043;-73
2021/08/04 03:33:47;;;;;;;1.13;0.77;;;;;;;22.02;51.76;101443.47;5093902;28;20024;-73
2021/08/04 03:36:12;;;;;;;1.40;0.88;;;;;;;22.04;51.77;101441.69;5060190;28;20073;-73
2021/08/04 03:38:38;;;;;;;1.02;0.80;;;;;;;22.06;51.64;101450.47;5093757;28;20024;-73
2021/08/04 03:41:03;;;;;;;0.90;0.68;;;;;;;22.05;51.53;101443.44;5094943;28;20108;-73
2021/08/04 03:43:28;;;;;;;1.00;0.82;;;;;;;22.05;51.86;101439.06;5076901;28;20032;-73
2021/08/04 03:45:54;;;;;;;0.82;0.77;;;;;;;22.07;51.61;101450.41;5093346;28;20109;-73
2021/08/04 03:48:19;;;;;;;1.02;0.70;;;;;;;22.01;51.68;101439.97;5093435;28;20036;-73
2021/08/04 03:50:45;;;;;;;0.80;0.68;;;;;;;21.98;51.77;101425.91;5077000;28;20024;-73
2021/08/04 03:53:10;;;;;;;0.73;0.68;;;;;;;22.04;51.74;101447.84;5093618;28;20488;-73
2021/08/04 03:55:35;;;;;;;1.10;0.80;;;;;;;22.03;51.88;101442.59;5110418;28;20028;-74
2021/08/04 03:58:01;;;;;;;0.82;0.65;;;;;;;22.06;51.77;101448.69;5093275;28;20028;-73
2021/08/04 04:00:26;;;;;;;1.00;0.65;;;;;;;22.03;51.72;101442.59;5094384;28;20126;-73
2021/08/04 04:02:52;;;;;;;1.35;0.80;;;;;;;22.06;51.85;101450.47;5096492;28;20087;-73
2021/08/04 04:05:17;;;;;;;0.57;0.57;;;;;;;21.97;51.82;101432.94;5097024;28;20023;-73
2021/08/04 04:07:43;;;;;;;1.63;1.02;;;;;;;22.03;51.84;101443.47;5080967;28;20474;-73
2021/08/04 04:10:09;;;;;;;1.00;0.73;;;;;;;22.04;51.78;101449.59;5079571;28;20378;-73
2021/08/04 04:12:35;;;;;;;0.98;0.75;;;;;;;22.02;51.78;101448.75;5096954;28;20114;-73
2021/08/04 04:15:00;;;;;;;0.95;0.80;;;;;;;22.04;51.70;101457.50;5096912;28;20070;-73
2021/08/04 04:17:25;;;;;;;1.23;0.90;;;;;;;22.04;51.83;101457.50;5096817;28;20096;-73
2021/08/04 04:19:51;;;;;;;1.02;0.70;;;;;;;22.01;51.97;101453.13;5080081;28;20049;-73
2021/08/04 04:22:17;;;;;;;1.83;0.60;;;;;;;22.02;51.93;101459.28;5097449;28;20028;-73
2021/08/04 04:24:42;;;;;;;0.93;0.70;;;;;;;22.02;51.99;101467.19;5115942;28;20028;-73
2021/08/04 04:27:07;;;;;;;1.48;0.93;;;;;;;22.04;51.79;101470.66;5080127;28;20053;-73
2021/08/04 04:29:33;;;;;;;0.98;0.90;;;;;;;22.04;51.72;101470.66;5097084;28;20042;-73
2021/08/04 04:31:58;;;;;;;1.23;1.00;;;;;;;22.04;51.70;101479.44;5097297;28;20032;-73
2021/08/04 04:34:23;;;;;;;1.63;0.95;;;;;;;22.05;51.66;101480.31;5116842;28;20063;-73
2021/08/04 04:36:49;;;;;;;1.00;0.75;;;;;;;22.03;51.67;101471.56;5118800;28;20462;-73
2021/08/04 04:39:14;;;;;;;1.33;0.88;;;;;;;22.03;51.77;101474.19;5083473;28;20088;-73
2021/08/04 04:41:39;;;;;;;1.00;0.80;;;;;;;22.00;51.62;101466.31;5099848;28;20041;-73
2021/08/04 04:44:06;;;;;;;1.17;1.00;;;;;;;22.05;51.83;101477.69;5100566;28;20058;-73
2021/08/04 04:46:31;;;;;;;1.40;0.75;;;;;;;22.04;51.91;101478.56;5119050;28;20106;-73
2021/08/04 04:48:57;;;;;;;1.25;0.90;;;;;;;22.03;51.81;101471.56;5101018;28;20071;-73
2021/08/04 04:51:22;;;;;;;2.15;1.00;;;;;;;22.02;51.78;101477.72;5119169;28;20024;-73
2021/08/04 04:53:48;;;;;;;1.00;0.77;;;;;;;22.03;51.60;101463.66;5101139;28;20373;-73
2021/08/04 04:56:13;;;;;;;1.08;0.70;;;;;;;22.08;51.74;101482.91;5118441;28;20026;-73
2021/08/04 04:58:39;;;;;;;1.42;0.73;;;;;;;22.05;51.64;101477.69;5118513;28;20027;-73
2021/08/04 05:01:04;;;;;;;0.60;0.60;;;;;;;22.03;51.59;101480.34;5066926;28;20066;-73
2021/08/04 05:03:30;;;;;;;0.98;0.80;;;;;;;22.04;51.54;101479.44;5100365;28;20039;-73
2021/08/04 05:05:55;;;;;;;1.17;0.70;;;;;;;22.07;51.46;101486.44;5083612;28;20477;-73
2021/08/04 05:08:20;;;;;;;0.90;0.80;;;;;;;22.07;51.75;101489.94;5118232;28;20486;-73
2021/08/04 05:10:46;;;;;;;1.00;0.80;;;;;;;22.05;51.54;101489.09;5100176;28;20367;-73
2021/08/04 05:13:11;;;;;;;0.80;0.80;;;;;;;22.08;51.62;101486.41;5118453;28;20032;-73
2021/08/04 05:15:36;;;;;;;1.08;0.90;;;;;;;22.07;51.70;101481.19;5100015;28;20027;-73
2021/08/04 05:18:02;;;;;;;1.75;1.10;;;;;;;22.07;51.57;101475.91;5100310;28;20028;-73
2021/08/04 05:20:28;;;;;;;1.10;0.88;;;;;;;22.11;51.67;101488.16;5083606;28;20053;-73
2021/08/04 05:22:53;;;;;;;1.40;1.00;;;;;;;22.09;51.65;101485.53;5083320;28;20114;-73
2021/08/04 05:25:19;;;;;;;1.20;0.70;;;;;;;22.13;51.65;101493.41;5100933;28;20059;-73
2021/08/04 05:27:44;;;;;;;1.10;0.82;;;;;;;22.11;51.68;101496.03;5100937;28;20024;-73
2021/08/04 05:30:12;;;;;;;0.88;0.70;;;;;;;22.10;51.77;101495.16;5101446;28;20035;-72
2021/08/04 05:32:38;;;;;;;0.88;0.80;;;;;;;22.12;51.54;101497.78;5086464;28;20031;-72
2021/08/04 05:35:04;;;;;;;0.70;0.70;;;;;;;22.09;51.36;101498.69;5119134;28;20152;-72
2021/08/04 05:37:29;;;;;;;1.30;0.80;;;;;;;22.09;51.75;101503.09;5118096;28;20513;-73
2021/08/04 05:39:54;;;;;;;1.80;0.98;;;;;;;22.11;51.70;101509.22;5083150;28;20031;-73
2021/08/04 05:42:19;;;;;;;0.95;0.70;;;;;;;22.12;51.63;101507.47;5100895;28;20027;-73
2021/08/04 05:44:45;;;;;;;2.10;0.95;;;;;;;22.08;51.90;101503.97;5099219;28;20027;-73
2021/08/04 05:47:10;;;;;;;1.20;0.80;;;;;;;22.11;51.83;101503.94;5098455;28;20044;-73
2021/08/04 05:49:36;;;;;;;1.00;0.90;;;;;;;22.13;51.71;101510.09;5099523;28;20023;-73
2021/08/04 05:52:01;;;;;;;1.35;1.00;;;;;;;22.07;51.85;101492.56;5099285;28;20019;-73
2021/08/04 05:54:27;;;;;;;1.83;1.17;;;;;;;22.08;51.91;101493.44;5098609;28;20031;-73
2021/08/04 05:56:52;;;;;;;1.75;1.15;;;;;;;22.13;51.65;101504.81;5116712;28;20024;-73
2021/08/04 05:59:17;;;;;;;1.40;0.80;;;;;;;22.08;51.68;101496.06;5081208;28;20027;-73
2021/08/04 06:01:43;;;;;;;1.00;0.77;;;;;;;22.14;51.67;101511.84;5097798;28;20386;-73
2021/08/04 06:04:08;;;;;;;1.50;0.98;;;;;;;22.16;51.76;101512.69;5064620;28;20039;-73
2021/08/04 06:06:34;;;;;;;0.98;0.88;;;;;;;22.12;51.61;101505.69;5116406;28;20046;-73
2021/08/04 06:08:59;;;;;;;1.23;0.90;;;;;;;22.16;51.75;101509.19;5098202;28;20031;-73
2021/08/04 06:11:24;;;;;;;1.02;0.90;;;;;;;22.17;51.83;101505.66;5098251;28;20019;-73
2021/08/04 06:13:50;;;;;;;1.33;0.85;;;;;;;22.14;51.57;101501.28;5116319;28;20024;-73
2021/08/04 06:16:15;;;;;;;1.33;0.70;;;;;;;22.14;51.73;101505.69;5116232;28;20049;-73
2021/08/04 06:18:41;;;;;;;1.20;0.95;;;;;;;22.17;51.72;101513.56;5081261;28;20031;-73
2021/08/04 06:21:07;;;;;;;1.95;0.75;;;;;;;22.16;51.63;101509.19;5098854;28;20534;-74
2021/08/04 06:23:33;;;;;;;1.05;0.70;;;;;;;22.14;51.68;101503.06;5098501;28;20091;-74
2021/08/04 06:25:58;;;;;;;1.48;0.82;;;;;;;22.16;51.72;101498.66;5116772;28;20076;-75
2021/08/04 06:28:24;;;;;;;1.38;0.73;;;;;;;22.21;51.40;101505.59;5081588;28;20031;-74
2021/08/04 06:30:49;;;;;;;1.02;0.93;;;;;;;22.32;51.27;101509.03;5098118;28;20496;-75
2021/08/04 06:33:15;;;;;;;0.95;0.75;;;;;;;22.31;51.05;101494.09;5098258;28;20024;-75
2021/08/04 06:35:40;;;;;;;1.00;0.73;;;;;;;22.37;51.21;101495.78;5098934;28;20032;-75
2021/08/04 06:38:06;;;;;;;1.52;0.95;;;;;;;22.46;50.97;101503.56;5082901;28;20023;-75
2021/08/04 06:40:31;;;;;;;1.27;0.80;;;;;;;22.49;50.93;101500.03;5100236;28;20110;-75
2021/08/04 06:42:56;;;;;;;1.45;0.93;;;;;;;22.55;50.90;101503.50;5083676;28;20470;-75
2021/08/04 06:45:22;;;;;;;0.90;0.75;;;;;;;22.54;51.04;101498.25;5082865;28;20031;-75
2021/08/04 06:47:47;;;;;;;0.85;0.73;;;;;;;22.60;50.86;101503.44;5100456;28;20055;-75
2021/08/04 06:50:12;;;;;;;1.20;0.95;;;;;;;22.60;50.51;101500.78;5102729;28;20546;-75
2021/08/04 06:52:40;;;;;;;1.10;0.93;;;;;;;22.62;50.77;101497.25;5109095;28;20484;-74
2021/08/04 06:55:06;;;;;;;0.80;0.65;;;;;;;22.70;50.85;101505.09;5102935;28;20111;-75
2021/08/04 06:57:31;;;;;;;0.95;0.85;;;;;;;22.69;50.69;101506.84;5083268;28;20055;-75
2021/08/04 06:59:59;;;;;;;18.33;1.50;;;;;;;22.70;50.64;101505.09;5103139;28;20027;-74
2021/08/04 07:02:25;;;;;;;1.02;0.70;;;;;;;22.68;50.86;101498.97;5107613;28;20142;-75
2021/08/04 07:04:50;;;;;;;1.08;0.70;;;;;;;22.76;50.84;101512.94;5107475;28;20023;-75
2021/08/04 07:07:16;;;;;;;1.50;1.02;;;;;;;22.74;50.68;101509.41;5085691;28;20081;-74
2021/08/04 07:09:42;;;;;;;0.57;0.50;;;;;;;22.65;50.65;101494.59;5101591;28;20496;-74
2021/08/04 07:12:11;;;;;;;0.98;0.77;;;;;;;22.73;50.67;101503.25;5086496;28;20107;-74
2021/08/04 07:14:45;;;;;;;1.13;0.93;;;;;;;22.74;50.65;101504.13;5122715;28;20115;-75
2021/08/04 07:17:13;;;;;;;1.10;0.77;;;;;;;22.77;50.52;101510.28;5106451;28;20023;-74
2021/08/04 07:19:47;;;;;;;0.98;0.80;;;;;;;22.83;50.61;101522.53;5121540;28;20024;-75
2021/08/04 07:22:13;;;;;;;0.80;0.80;;;;;;;22.84;50.74;101519.00;5102145;28;20028;-74
2021/08/04 07:24:41;;;;;;;0.88;0.70;;;;;;;22.87;50.58;101521.59;5085912;28;20179;-76
2021/08/04 07:27:07;;;;;;;0.95;0.60;;;;;;;22.85;50.30;101518.09;5119118;28;20035;-74
2021/08/04 07:29:35;;;;;;;1.52;0.90;;;;;;;22.86;50.38;101511.94;5101022;28;20027;-74
2021/08/04 07:32:04;;;;;;;0.98;0.77;;;;;;;22.86;50.34;101519.84;5084892;28;20028;-74
2021/08/04 07:34:32;;;;;;;1.05;0.95;;;;;;;22.80;50.51;101502.34;5083271;28;20157;-74
2021/08/04 07:36:57;;;;;;;1.30;1.00;;;;;;;22.94;50.47;101523.28;5097862;28;20027;-75
2021/08/04 07:39:22;;;;;;;1.00;0.80;;;;;;;22.89;50.58;101503.97;5114338;28;20477;-74
2021/08/04 07:41:48;;;;;;;1.20;1.00;;;;;;;22.98;50.40;101519.69;5096385;28;20027;-74
2021/08/04 07:44:13;;;;;;;0.90;0.80;;;;;;;22.99;50.33;101525.84;5080707;28;20031;-75
2021/08/04 07:46:39;;;;;;;0.88;0.63;;;;;;;22.97;50.43;101515.34;5098659;28;20054;-74
2021/08/04 07:49:07;;;;;;;1.58;0.93;;;;;;;22.89;50.54;101498.72;5099704;28;20114;-74
2021/08/04 07:51:36;;;;;;;0.63;0.63;;;;;;;22.97;50.33;101514.47;5082888;28;20099;-75
2021/08/04 07:54:01;;;;;;;1.23;0.82;;;;;;;23.03;50.21;101522.28;5100379;28;20443;-74
2021/08/04 07:56:28;;;;;;;1.30;0.80;;;;;;;22.98;50.44;101516.22;5117749;28;20028;-74
2021/08/04 07:58:53;;;;;;;1.08;0.90;;;;;;;23.03;50.54;101514.34;5098595;28;20118;-73
2021/08/04 08:01:19;;;;;;;1.00;0.80;;;;;;;23.02;50.46;101521.41;5097244;28;20097;-74
2021/08/04 08:03:46;;;;;;;0.82;0.60;;;;;;;23.02;50.18;101510.84;5096751;28;20060;-74
2021/08/04 08:06:11;;;;;;;1.05;0.95;;;;;;;23.04;50.26;101511.72;5097926;28;20090;-74
2021/08/04 08:08:36;;;;;;;0.82;0.52;;;;;;;22.98;50.43;101498.59;5098740;28;20035;-74
2021/08/04 08:11:03;;;;;;;1.20;0.80;;;;;;;23.04;50.40;101506.44;5081156;28;20066;-74
2021/08/04 08:13:29;;;;;;;1.00;0.70;;;;;;;23.06;50.47;101509.94;5080616;28;20023;-74
2021/08/04 08:15:54;;;;;;;1.05;0.85;;;;;;;23.03;50.30;101512.59;5114527;28;20432;-74
2021/08/04 08:18:20;;;;;;;0.85;0.65;;;;;;;23.02;50.21;101508.22;5096728;28;20028;-74
2021/08/04 08:20:45;;;;;;;1.05;0.80;;;;;;;22.98;50.44;101492.47;5079236;28;20085;-74
2021/08/04 08:23:11;;;;;;;1.58;0.85;;;;;;;22.98;50.08;101488.03;5096224;28;20466;-75
2021/08/04 08:25:38;;;;;;;1.77;1.00;;;;;;;23.05;50.49;101504.66;5114255;28;20084;-74
2021/08/04 08:28:04;;;;;;;2.33;0.80;;;;;;;23.03;50.47;101493.25;5079945;28;20035;-74
2021/08/04 08:30:35;;;;;;;0.95;0.57;;;;;;;22.99;50.42;101488.91;5117543;28;20027;-76
2021/08/04 08:33:00;;;;;;;1.92;1.10;;;;;;;23.03;50.21;101487.97;5097407;28;20068;-74
2021/08/04 08:35:25;;;;;;;1.73;0.90;;;;;;;23.05;50.36;101494.13;5095926;28;20032;-74
2021/08/04 08:37:51;;;;;;;1.60;0.98;;;;;;;23.05;50.41;101504.66;5095834;28;20043;-75
2021/08/04 08:40:17;;;;;;;1.33;0.88;;;;;;;23.01;50.38;101492.41;5095556;28;20431;-74
2021/08/04 08:42:44;;;;;;;0.90;0.70;;;;;;;23.05;50.27;101499.38;5062425;28;20435;-75
2021/08/04 08:45:13;;;;;;;1.10;0.68;;;;;;;23.00;50.27;101486.25;5095650;28;20114;-74
2021/08/04 08:47:43;;;;;;;0.65;0.60;;;;;;;23.06;50.52;101502.00;5095849;28;20047;-74
2021/08/04 08:50:11;;;;;;;1.23;0.90;;;;;;;23.06;50.46;101502.00;5096111;28;20058;-74
2021/08/04 08:52:36;;;;;;;0.60;0.50;;;;;;;23.03;50.18;101494.13;5095614;28;20024;-74
2021/08/04 08:55:04;;;;;;;1.40;1.00;;;;;;;23.04;50.26;101495.88;5095954;28;20389;-74
2021/08/04 08:57:30;;;;;;;0.82;0.75;;;;;;;23.00;50.46;101491.53;5113844;28;20070;-74
2021/08/04 08:59:57;;;;;;;0.63;0.57;;;;;;;23.01;50.54;101495.91;5114533;28;20055;-73
2021/08/04 09:02:24;;;;;;;0.85;0.75;;;;;;;23.01;50.53;101500.31;5113868;28;20043;-73
2021/08/04 09:05:06;;;;;;;0.73;0.52;;;;;;;23.02;50.43;101497.66;5095689;28;20076;-72
2021/08/04 09:07:36;;;;;;;1.05;0.73;;;;;;;23.03;50.46;101493.25;5113737;28;20032;-72
2021/08/04 09:10:21;;;;;;;1.13;0.88;;;;;;;23.01;50.38;101495.91;5095784;28;20028;-72
2021/08/04 09:12:51;;;;;;;2.63;2.03;;;;;;;22.92;49.30;101500.44;5095388;28;20015;-73
2021/08/04 09:15:23;;;;;;;5.97;4.80;;;;;;;22.66;47.05;101493.69;5095003;28;20065;-72
2021/08/04 09:18:10;;;;;;;7.10;4.20;;;;;;;22.54;48.13;101493.84;5095151;28;20027;-73
2021/08/04 09:20:53;;;;;;;5.53;3.85;;;;;;;22.12;47.45;101489.03;5113892;28;20308;-72
2021/08/04 09:23:21;;;;;;;4.85;3.17;;;;;;;22.39;47.45;101494.00;5116991;28;20082;-72
2021/08/04 09:26:01;;;;;;;5.80;2.58;;;;;;;22.58;47.77;101489.41;5098732;28;20031;-72
2021/08/04 09:28:27;;;;;;;4.30;2.70;;;;;;;22.61;47.43;101473.53;5116796;28;20034;-72
2021/08/04 09:31:03;;;;;;;3.92;2.30;;;;;;;22.75;47.48;101485.66;5098596;28;20469;-72
2021/08/04 09:33:36;;;;;;;2.78;1.80;;;;;;;22.75;47.50;101476.88;5098733;28;20473;-72
2021/08/04 09:36:02;;;;;;;3.25;1.90;;;;;;;22.84;47.74;101479.47;5098443;28;20381;-72
2021/08/04 09:38:27;;;;;;;7.47;3.38;;;;;;;22.82;48.02;101470.69;5116788;28;20019;-72
2021/08/04 09:41:17;;;;;;;6.45;2.00;;;;;;;22.86;48.02;101482.91;5098653;28;20409;-72
2021/08/04 09:43:48;;;;;;;3.70;2.00;;;;;;;22.86;47.88;101468.84;5098455;28;20351;-72
2021/08/04 09:46:24;;;;;;;2.28;1.63;;;;;;;22.76;48.31;101465.47;5082198;28;20031;-72
2021/08/04 09:48:51;;;;;;;2.47;1.60;;;;;;;22.87;48.30;101471.47;5116332;28;20422;-72
2021/08/04 09:51:17;;;;;;;3.25;1.80;;;;;;;22.88;48.12;101478.50;5098264;28;20065;-72
2021/08/04 09:53:49;;;;;;;2.10;1.50;;;;;;;22.86;48.32;101468.84;5098282;28;20106;-72
2021/08/04 09:56:16;;;;;;;5.72;1.88;;;;;;;22.88;48.54;101470.59;5099125;28;20034;-72
2021/08/04 09:58:49;;;;;;;3.03;1.63;;;;;;;22.86;48.56;101466.22;5116330;28;20023;-72
2021/08/04 10:01:21;;;;;;;1.83;1.40;;;;;;;22.86;48.52;101461.81;5115942;28;20058;-72
2021/08/04 10:04:04;;;;;;;2.15;1.30;;;;;;;22.85;48.59;101464.50;5098287;28;20076;-74
2021/08/04 10:06:30;;;;;;;2.13;1.58;;;;;;;22.87;48.82;101467.97;5097807;28;20157;-74
2021/08/04 10:08:57;;;;;;;2.25;2.03;;;;;;;22.80;48.76;101452.25;5116104;28;20500;-74
2021/08/04 10:11:23;;;;;;;2.20;1.60;;;;;;;22.79;48.93;101461.03;5080944;28;20039;-74
2021/08/04 10:13:49;;;;;;;3.45;1.55;;;;;;;22.77;48.93;101451.41;5098311;28;20023;-72
2021/08/04 10:16:15;;;;;;;1.30;1.08;;;;;;;22.86;49.05;101461.81;5080672;28;20035;-72
2021/08/04 10:18:40;;;;;;;2.65;1.70;;;;;;;22.77;49.38;101457.56;5097428;28;20031;-72
2021/08/04 10:21:11;;;;;;;1.92;1.40;;;;;;;22.74;49.04;101451.41;5115945;28;20493;-73
2021/08/04 10:23:39;;;;;;;2.92;1.77;;;;;;;22.77;49.26;101457.56;5115826;28;20023;-72
2021/08/04 10:26:10;;;;;;;2.67;1.45;;;;;;;22.73;49.35;101455.81;5080684;28;20110;-72
2021/08/04 10:28:35;;;;;;;2.13;1.27;;;;;;;22.78;49.37;101461.06;5115707;28;20047;-74
2021/08/04 10:31:02;;;;;;;1.73;1.27;;;;;;;22.78;49.42;101464.56;5097529;28;20478;-72
2021/08/04 10:33:29;;;;;;;1.33;0.98;;;;;;;22.76;49.21;101444.38;5080025;28;20423;-74
2021/08/04 10:36:05;;;;;;;1.50;1.05;;;;;;;22.82;49.29;101454.00;5115630;28;20458;-74
2021/08/04 10:38:32;;;;;;;3.60;1.75;;;;;;;22.84;49.39;101454.84;5115521;28;20024;-73
2021/08/04 10:41:22;;;;;;;2.42;1.63;;;;;;;22.84;49.44;101457.47;5080437;28;20085;-72
2021/08/04 10:43:59;;;;;;;2.05;1.50;;;;;;;22.81;49.46;101445.22;5084921;28;20036;-72
2021/08/04 10:46:27;;;;;;;2.33;1.30;;;;;;;22.83;49.47;101451.34;5097069;28;20019;-72
2021/08/04 10:48:54;;;;;;;1.95;1.35;;;;;;;22.81;49.60;101453.13;5097159;28;20037;-72
2021/08/04 10:51:19;;;;;;;1.65;1.33;;;;;;;22.74;49.64;101452.28;5097305;28;20023;-72
2021/08/04 10:54:00;;;;;;;1.95;1.30;;;;;;;22.82;49.63;101452.22;5097168;28;20029;-72
2021/08/04 10:56:45;;;;;;;2.03;1.42;;;;;;;22.82;49.73;101457.50;5096718;28;20030;-72
2021/08/04 10:59:11;;;;;;;2.85;2.03;;;;;;;22.80;49.62;101451.38;5115166;28;20022;-72
2021/08/04 11:01:38;;;;;;;1.80;1.20;;;;;;;22.77;49.66;101446.13;5114891;28;20401;-72
2021/08/04 11:04:04;;;;;;;1.67;1.30;;;;;;;22.80;49.83;101452.25;5080164;28;20032;-74
2021/08/04 11:06:30;;;;;;;1.70;1.25;;;;;;;22.80;49.65;101446.09;5096660;28;20030;-74
2021/08/04 11:09:22;;;;;;;1.67;1.27;;;;;;;22.82;49.78;101444.31;5097103;28;20490;-74
2021/08/04 11:12:00;;;;;;;1.92;1.48;;;;;;;22.80;49.61;101436.44;5102876;28;20492;-74
2021/08/04 11:14:46;;;;;;;1.83;1.30;;;;;;;22.81;49.83;101434.66;5098958;28;20019;-74
2021/08/04 11:17:17;;;;;;;1.85;0.93;;;;;;;22.79;49.80;101433.81;5097638;28;20477;-74
2021/08/04 11:20:07;;;;;;;1.25;0.90;;;;;;;22.82;49.86;101438.16;5117551;28;20051;-74
2021/08/04 11:22:39;;;;;;;1.45;1.02;;;;;;;22.83;49.61;101439.91;5099295;28;20073;-74
2021/08/04 11:25:04;;;;;;;1.50;1.17;;;;;;;22.84;49.82;101437.25;5116651;28;20045;-74
2021/08/04 11:27:32;;;;;;;1.50;1.13;;;;;;;22.78;49.83;101426.78;5116285;28;20019;-74
2021/08/04 11:29:58;;;;;;;1.35;1.00;;;;;;;22.78;50.13;101427.66;5115714;28;20066;-74